createdAt,value
2022-12-25T00:01:53.280Z,100.00
2022-12-25T00:06:59.504Z,100.00
2022-12-25T00:12:02.750Z,100.00
2022-12-25T00:17:06.033Z,100.00
2022-12-25T00:22:10.857Z,100.00
2022-12-25T00:27:14.373Z,100.00
2022-12-25T00:32:17.696Z,100.00
2022-12-25T00:37:22.337Z,100.00
2022-12-25T00:42:27.117Z,100.00
2022-12-25T00:47:31.105Z,100.00
2022-12-25T00:52:36.119Z,100.00
2022-12-25T00:57:39.385Z,100.00
2022-12-25T01:02:42.934Z,100.00
2022-12-25T01:07:47.763Z,100.00
2022-12-25T01:12:52.250Z,100.00
2022-12-25T01:17:55.553Z,100.00
2022-12-25T01:23:00.446Z,100.00
2022-12-25T01:28:03.846Z,100.00
2022-12-25T01:33:07.260Z,100.00
2022-12-25T01:38:11.784Z,100.00
2022-12-25T01:43:24.322Z,100.00
2022-12-25T01:48:31.666Z,100.00
2022-12-25T01:53:36.345Z,100.00
2022-12-25T01:58:39.886Z,100.00
2022-12-25T02:03:43.584Z,100.00
2022-12-25T02:08:48.244Z,100.00
2022-12-25T02:13:51.449Z,100.00
2022-12-25T02:19:04.284Z,100.00
2022-12-25T02:24:40.758Z,100.00
2022-12-25T02:29:50.983Z,100.00
2022-12-25T02:35:01.739Z,100.00
2022-12-25T02:40:15.874Z,100.00
2022-12-25T02:45:42.126Z,100.00
2022-12-25T02:51:03.112Z,100.00
2022-12-25T02:56:24.116Z,100.00
2022-12-25T03:01:51.682Z,100.00
2022-12-25T03:07:09.355Z,100.00
2022-12-25T03:12:19.669Z,100.00
2022-12-25T03:17:24.534Z,100.00
2022-12-25T03:22:55.984Z,100.00
2022-12-25T03:28:00.275Z,100.00
2022-12-25T03:33:43.404Z,100.00
2022-12-25T03:39:16.410Z,100.00
2022-12-25T03:44:47.517Z,100.00
2022-12-25T03:50:17.134Z,100.00
2022-12-25T03:55:38.771Z,100.00
2022-12-25T04:00:59.314Z,100.00
2022-12-25T04:06:21.715Z,100.00
2022-12-25T04:11:42.221Z,100.00
2022-12-25T04:17:02.719Z,100.00
2022-12-25T04:22:24.809Z,100.00
2022-12-25T04:27:45.535Z,100.00
2022-12-25T04:33:05.905Z,100.00
2022-12-25T04:38:10.685Z,100.00
2022-12-25T04:43:14.029Z,100.00
2022-12-25T04:48:17.484Z,100.00
2022-12-25T04:53:22.337Z,100.00
2022-12-25T04:58:25.760Z,100.00
2022-12-25T05:03:29.153Z,100.00
2022-12-25T05:08:35.254Z,100.00
2022-12-25T05:13:40.815Z,100.00
2022-12-25T05:18:44.477Z,100.00
2022-12-25T05:23:51.585Z,100.00
2022-12-25T05:28:55.836Z,100.00
2022-12-25T05:33:59.242Z,100.00
2022-12-25T05:39:03.967Z,100.00
2022-12-25T05:44:07.332Z,100.00
2022-12-25T05:49:10.664Z,100.00
2022-12-25T05:54:16.939Z,98.81
2022-12-25T05:59:20.472Z,98.10
2022-12-25T06:04:23.847Z,99.48
2022-12-25T06:09:28.688Z,99.01
2022-12-25T06:14:32.231Z,97.03
2022-12-25T06:19:35.451Z,95.31
2022-12-25T06:24:40.851Z,94.66
2022-12-25T06:29:44.181Z,94.95
2022-12-25T06:34:48.971Z,93.73
2022-12-25T06:39:53.647Z,92.91
2022-12-25T06:44:56.992Z,92.67
2022-12-25T06:50:00.217Z,93.37
2022-12-25T06:55:04.983Z,91.46
2022-12-25T07:00:10.674Z,90.95
2022-12-25T07:05:14.042Z,91.36
2022-12-25T07:10:18.937Z,92.43
2022-12-25T07:15:22.174Z,91.86
2022-12-25T07:20:26.251Z,89.74
2022-12-25T07:25:36.827Z,91.51
2022-12-25T07:30:40.553Z,91.39
2022-12-25T07:35:44.272Z,90.46
2022-12-25T07:40:48.882Z,90.45
2022-12-25T07:45:56.204Z,89.85
2022-12-25T07:51:00.624Z,88.26
2022-12-25T07:56:07.628Z,85.91
2022-12-25T08:01:13.618Z,86.99
2022-12-25T08:06:17.106Z,88.31
2022-12-25T08:11:21.877Z,87.73
2022-12-25T08:16:25.446Z,87.89
2022-12-25T08:21:28.786Z,86.62
2022-12-25T08:26:33.806Z,87.16
2022-12-25T08:31:42.427Z,86.61
2022-12-25T08:36:49.099Z,85.99
2022-12-25T08:41:53.720Z,86.24
2022-12-25T08:46:57.929Z,86.02
2022-12-25T08:52:02.823Z,84.71
2022-12-25T08:57:07.716Z,85.34
2022-12-25T09:02:12.575Z,85.82
2022-12-25T09:07:16.028Z,84.80
2022-12-25T09:12:21.245Z,85.02
2022-12-25T09:17:24.490Z,84.60
2022-12-25T09:22:27.784Z,83.10
2022-12-25T09:27:32.613Z,84.09
2022-12-25T09:32:35.988Z,84.05
2022-12-25T09:37:39.354Z,82.45
2022-12-25T09:42:45.367Z,82.69
2022-12-25T09:47:50.571Z,82.64
2022-12-25T09:52:58.667Z,82.55
2022-12-25T09:58:12.531Z,82.41
2022-12-25T10:03:24.745Z,82.97
2022-12-25T10:08:48.087Z,81.51
2022-12-25T10:14:08.386Z,82.19
2022-12-25T10:19:23.114Z,81.44
2022-12-25T10:24:34.698Z,82.20
2022-12-25T10:29:39.928Z,82.48
2022-12-25T10:34:43.899Z,81.63
2022-12-25T10:39:47.348Z,81.71
2022-12-25T10:45:03.003Z,81.98
2022-12-25T10:50:12.656Z,81.16
2022-12-25T10:55:26.620Z,81.53
2022-12-25T11:00:34.799Z,81.07
2022-12-25T11:05:38.268Z,80.49
2022-12-25T11:10:44.100Z,80.48
2022-12-25T11:15:50.773Z,79.85
2022-12-25T11:20:55.515Z,79.84
2022-12-25T11:26:01.337Z,80.56
2022-12-25T11:31:10.311Z,80.63
2022-12-25T11:36:21.599Z,80.10
2022-12-25T11:41:33.055Z,80.16
2022-12-25T11:46:43.295Z,80.86
2022-12-25T11:51:48.963Z,80.74
2022-12-25T11:56:52.708Z,81.64
2022-12-25T12:02:03.126Z,81.89
2022-12-25T12:07:14.837Z,81.60
2022-12-25T12:12:25.031Z,81.60
2022-12-25T12:17:29.734Z,81.07
2022-12-25T12:22:32.999Z,81.31
2022-12-25T12:27:39.094Z,79.82
2022-12-25T12:32:45.312Z,80.97
2022-12-25T12:37:52.598Z,81.93
2022-12-25T12:42:56.464Z,81.46
2022-12-25T12:48:01.143Z,82.15
2022-12-25T12:53:19.890Z,81.75
2022-12-25T12:58:31.112Z,82.32
2022-12-25T13:04:09.323Z,81.93
2022-12-25T13:09:26.947Z,82.33
2022-12-25T13:14:30.375Z,81.97
2022-12-25T13:19:39.538Z,82.24
2022-12-25T13:24:43.164Z,82.50
2022-12-25T13:29:46.511Z,82.54
2022-12-25T13:34:52.145Z,81.68
2022-12-25T13:39:58.209Z,81.02
2022-12-25T13:45:06.228Z,81.43
2022-12-25T13:50:24.118Z,81.73
2022-12-25T13:55:29.153Z,82.47
2022-12-25T14:00:36.897Z,81.93
2022-12-25T14:05:43.448Z,82.21
2022-12-25T14:10:52.037Z,82.26
2022-12-25T14:15:56.875Z,81.91
2022-12-25T14:21:04.775Z,81.19
2022-12-25T14:26:08.315Z,82.21
2022-12-25T14:31:13.753Z,81.30
2022-12-25T14:36:19.399Z,82.24
2022-12-25T14:41:33.817Z,83.00
2022-12-25T14:46:37.327Z,83.02
2022-12-25T14:51:44.379Z,82.80
2022-12-25T14:56:48.850Z,82.29
2022-12-25T15:01:56.007Z,82.31
2022-12-25T15:07:07.488Z,82.02
2022-12-25T15:12:11.732Z,82.13
2022-12-25T15:17:28.347Z,81.89
2022-12-25T15:22:54.201Z,82.24
2022-12-25T15:27:58.227Z,82.34
2022-12-25T15:33:01.508Z,81.40
2022-12-25T15:38:06.386Z,81.55
2022-12-25T15:43:38.914Z,82.02
2022-12-25T15:48:36.628Z,82.10
2022-12-25T15:53:41.315Z,82.30
2022-12-25T15:58:44.531Z,82.73
2022-12-25T16:03:49.047Z,82.86
2022-12-25T16:08:53.675Z,83.25
2022-12-25T16:13:56.894Z,83.83
2022-12-25T16:19:00.153Z,82.85
2022-12-25T16:24:05.500Z,83.09
2022-12-25T16:29:09.197Z,83.06
2022-12-25T16:34:12.899Z,83.06
2022-12-25T16:39:17.501Z,83.70
2022-12-25T16:44:20.771Z,83.24
2022-12-25T16:49:24.184Z,83.54
2022-12-25T16:54:28.984Z,83.38
2022-12-25T16:59:33.090Z,84.08
2022-12-25T17:04:36.494Z,83.74
2022-12-25T17:09:44.304Z,83.79
2022-12-25T17:14:48.133Z,83.43
2022-12-25T17:19:51.417Z,83.21
2022-12-25T17:24:56.026Z,82.77
2022-12-25T17:35:21.518Z,82.94
2022-12-25T17:40:26.702Z,83.39
2022-12-25T17:45:30.038Z,82.74
2022-12-25T17:50:37.509Z,82.75
2022-12-25T17:55:45.916Z,83.80
2022-12-25T18:00:49.182Z,83.18
2022-12-25T18:05:52.668Z,82.59
2022-12-25T18:10:58.105Z,82.02
2022-12-25T18:16:04.296Z,82.74
2022-12-25T18:21:08.085Z,82.65
2022-12-25T18:26:13.168Z,82.33
2022-12-25T18:31:18.935Z,81.96
2022-12-25T18:36:24.838Z,82.28
2022-12-25T18:41:30.769Z,81.86
2022-12-25T18:46:34.207Z,81.87
2022-12-25T18:51:37.598Z,81.57
2022-12-25T18:56:42.325Z,82.34
2022-12-25T19:07:04.641Z,82.20
2022-12-25T19:12:10.850Z,82.68
2022-12-25T19:17:14.219Z,82.03
2022-12-25T19:22:17.692Z,82.88
2022-12-25T19:27:22.307Z,83.09
2022-12-25T19:32:25.654Z,83.32
2022-12-25T19:37:28.877Z,82.68
2022-12-25T19:42:33.574Z,83.62
2022-12-25T19:47:36.910Z,82.24
2022-12-25T19:52:40.288Z,82.87
2022-12-25T19:57:44.991Z,83.58
2022-12-25T20:02:48.455Z,83.25
2022-12-25T20:07:51.913Z,83.31
2022-12-25T20:12:57.121Z,83.34
2022-12-25T20:18:00.434Z,83.16
2022-12-25T20:23:03.698Z,83.42
2022-12-25T20:28:08.559Z,83.48
2022-12-25T20:33:11.847Z,83.43
2022-12-25T20:38:15.394Z,83.79
2022-12-25T20:43:20.026Z,83.68
2022-12-25T20:48:23.240Z,83.81
2022-12-25T20:53:26.808Z,83.93
2022-12-25T20:58:32.383Z,84.18
2022-12-25T21:03:38.244Z,84.81
2022-12-25T21:08:42.224Z,84.07
2022-12-25T21:13:47.488Z,84.83
2022-12-25T21:18:52.730Z,84.42
2022-12-25T21:23:58.069Z,84.54
2022-12-25T21:29:03.890Z,83.66
2022-12-25T21:34:07.525Z,83.92
2022-12-25T21:39:12.595Z,83.94
2022-12-25T21:44:17.301Z,83.43
2022-12-25T21:49:34.395Z,83.88
2022-12-25T21:54:37.952Z,83.80
2022-12-25T21:59:42.666Z,83.19
2022-12-25T22:04:46.335Z,83.18
2022-12-25T22:09:52.636Z,82.02
2022-12-25T22:15:02.917Z,82.36
2022-12-25T22:20:10.361Z,82.82
2022-12-25T22:25:14.318Z,81.94
2022-12-25T22:30:22.140Z,82.03
2022-12-25T22:35:26.041Z,81.89
2022-12-25T22:40:29.289Z,82.86
2022-12-25T22:45:33.929Z,82.76
2022-12-25T22:50:37.232Z,81.62
2022-12-25T22:55:40.548Z,82.00
2022-12-25T23:00:46.569Z,81.82
2022-12-25T23:05:55.372Z,81.67
2022-12-25T23:11:03.683Z,82.09
2022-12-25T23:16:13.900Z,81.39
2022-12-25T23:21:36.974Z,82.02
2022-12-25T23:26:40.321Z,82.04
2022-12-25T23:31:45.161Z,81.56
2022-12-25T23:36:48.749Z,82.04
2022-12-25T23:41:52.129Z,81.31
2022-12-25T23:46:58.512Z,81.93
2022-12-25T23:52:01.840Z,81.69
2022-12-25T23:57:05.820Z,81.95
